Terminal Aerodrome Forecast
Issued by NWS Caribou, ME

Home | Current Version | Previous Version | Text Only | Print | Product List | Glossary On
Versions: 1 2 3 4 5 6 7 8 9 10 11 12 13 14 15
000
FTUS41 KCAR 211232 AAA
TAFBGR
TAF AMD
KBGR 211232Z 2113/2212 13019G29KT 2SM RA BR OVC008 WS020/14055KT
     FM212100 20008KT 6SM -RA OVC008
     FM212300 25005KT P6SM BKN020
     FM220100 VRB03KT P6SM SCT050=

USA.gov is the U.S. government's official web portal to all federal, state and local government web resources and services.